createdAt,value
2022-11-14T00:06:17.252Z,2.25
2022-11-14T00:16:39.943Z,1.95
2022-11-14T00:27:02.668Z,1.73
2022-11-14T00:37:25.056Z,1.60
2022-11-14T00:47:47.742Z,1.51
2022-11-14T00:58:10.448Z,1.42
2022-11-14T01:08:33.458Z,1.37
2022-11-14T01:18:56.037Z,1.27
2022-11-14T01:29:18.230Z,1.30
2022-11-14T01:39:40.522Z,1.17
2022-11-14T01:50:06.376Z,0.97
2022-11-14T02:00:28.477Z,0.88
2022-11-14T02:10:50.973Z,0.90
2022-11-14T02:21:13.685Z,1.03
2022-11-14T02:31:36.576Z,1.11
2022-11-14T02:41:58.869Z,0.96
2022-11-14T02:52:21.565Z,0.79
2022-11-14T03:02:43.967Z,0.68
2022-11-14T03:13:06.344Z,0.67
2022-11-14T03:23:29.213Z,0.65
2022-11-14T03:33:51.665Z,0.73
2022-11-14T03:44:14.265Z,0.83
2022-11-14T03:54:37.259Z,0.73
2022-11-14T04:05:00.049Z,0.66
2022-11-14T04:15:22.443Z,0.65
2022-11-14T04:25:46.566Z,0.65
2022-11-14T04:36:09.378Z,0.72
2022-11-14T04:46:32.068Z,0.79
2022-11-14T04:56:54.603Z,0.99
2022-11-14T05:07:17.452Z,1.06
2022-11-14T05:17:39.965Z,1.11
2022-11-14T05:28:02.974Z,1.15
2022-11-14T05:38:25.773Z,1.19
2022-11-14T05:48:48.488Z,1.11
2022-11-14T05:59:11.179Z,0.98
2022-11-14T06:09:34.107Z,1.01
2022-11-14T06:19:56.888Z,1.16
2022-11-14T06:30:20.082Z,1.21
2022-11-14T06:40:42.502Z,1.35
2022-11-14T06:51:06.270Z,1.40
2022-11-14T07:01:28.820Z,1.36
2022-11-14T07:11:51.392Z,1.39
2022-11-14T07:22:14.504Z,1.54
2022-11-14T07:32:37.199Z,1.95
2022-11-14T07:43:01.589Z,2.40
2022-11-14T07:53:24.847Z,2.75
2022-11-14T08:03:47.752Z,2.86
2022-11-14T08:14:10.145Z,2.82
2022-11-14T08:24:32.747Z,2.86
2022-11-14T08:34:55.228Z,3.02
2022-11-14T08:45:18.247Z,3.27
2022-11-14T08:55:49.967Z,3.42
2022-11-14T09:06:12.542Z,3.50
2022-11-14T09:16:35.244Z,3.66
2022-11-14T09:26:57.757Z,3.91
2022-11-14T09:37:20.232Z,4.37
2022-11-14T09:47:48.866Z,4.91
2022-11-14T09:58:22.827Z,5.42
2022-11-14T10:09:09.257Z,6.00
2022-11-14T10:19:42.932Z,6.64
2022-11-14T10:30:20.567Z,7.16
2022-11-14T10:41:00.127Z,7.66
2022-11-14T10:51:44.141Z,8.17
2022-11-14T11:02:06.713Z,8.58
2022-11-14T11:12:38.392Z,8.99
2022-11-14T11:23:12.469Z,9.39
2022-11-14T11:33:37.583Z,9.75
2022-11-14T11:44:07.274Z,10.08
2022-11-14T11:54:46.666Z,10.34
2022-11-14T12:05:16.937Z,10.52
2022-11-14T12:15:42.801Z,10.69
2022-11-14T12:26:23.219Z,10.79
2022-11-14T12:36:47.157Z,10.79
2022-11-14T12:47:10.245Z,10.70
2022-11-14T12:57:59.042Z,10.45
2022-11-14T13:09:00.303Z,10.23
2022-11-14T13:19:41.137Z,9.94
2022-11-14T13:30:08.467Z,9.80
2022-11-14T13:40:44.035Z,9.51
2022-11-14T13:51:41.314Z,9.27
2022-11-14T14:02:20.093Z,9.10
2022-11-14T14:12:55.060Z,9.00
2022-11-14T14:23:33.929Z,8.77
2022-11-14T14:33:56.018Z,8.41
2022-11-14T14:44:37.622Z,8.06
2022-11-14T14:55:04.115Z,7.65
2022-11-14T15:05:29.780Z,7.04
2022-11-14T15:15:53.423Z,6.52
2022-11-14T15:26:19.500Z,6.16
2022-11-14T15:37:13.911Z,5.80
2022-11-14T15:47:40.939Z,5.48
2022-11-14T16:08:46.684Z,4.62
2022-11-14T16:19:15.825Z,4.24
2022-11-14T16:29:39.299Z,4.03
2022-11-14T16:40:02.447Z,3.80
2022-11-14T16:50:24.905Z,3.52
2022-11-14T17:00:47.848Z,3.18
2022-11-14T17:11:11.182Z,2.91
2022-11-14T17:21:34.164Z,2.69
2022-11-14T17:31:57.001Z,2.51
2022-11-14T17:42:22.738Z,2.29
2022-11-14T17:52:46.054Z,2.04
2022-11-14T18:03:10.074Z,1.90
2022-11-14T18:13:34.843Z,1.74
2022-11-14T18:24:00.057Z,1.56
2022-11-14T18:34:25.660Z,1.47
2022-11-14T18:44:53.071Z,1.37
2022-11-14T18:55:21.075Z,1.24
2022-11-14T19:05:45.209Z,1.09
2022-11-14T19:16:09.546Z,0.94
2022-11-14T19:26:34.392Z,0.90
2022-11-14T19:37:01.181Z,0.93
2022-11-14T19:47:25.011Z,0.91
2022-11-14T19:57:49.678Z,0.87
2022-11-14T20:08:13.886Z,0.96
2022-11-14T20:18:38.492Z,1.03
2022-11-14T20:29:03.571Z,1.08
2022-11-14T20:39:27.006Z,1.11
2022-11-14T20:49:52.045Z,1.07
2022-11-14T21:00:16.921Z,1.10
2022-11-14T21:10:47.181Z,1.07
2022-11-14T21:21:19.182Z,1.03
2022-11-14T21:31:46.175Z,0.94
2022-11-14T21:42:12.914Z,0.83
2022-11-14T21:52:38.334Z,0.77
2022-11-14T22:03:19.861Z,0.75
2022-11-14T22:13:42.561Z,0.71
2022-11-14T22:24:05.731Z,0.62
2022-11-14T22:34:28.364Z,0.58
2022-11-14T22:44:50.558Z,0.50
2022-11-14T22:55:17.905Z,0.57
2022-11-14T23:05:40.555Z,0.62
2022-11-14T23:16:03.563Z,0.66
2022-11-14T23:26:27.078Z,0.66
2022-11-14T23:36:49.270Z,0.58
2022-11-14T23:47:11.869Z,0.56
2022-11-14T23:57:34.173Z,0.52
